Time;durP1;ratioP1;P1;durP2;ratioP2;P2;SDS_P1;SDS_P2;PMS_P1;PMS_P2;Temp;Humidity;BMP_temperature;BMP_pressure;BME280_temperature;BME280_humidity;BME280_pressure;Samples;Min_cycle;Max_cycle;Signal;HPM_P1;HPM_P2
2023/07/06 00:02:00;;;;;;;1999.90;999.90;;;15.10;99.90;;;;;;4956470;29;20113;-69
2023/07/06 00:04:26;;;;;;;1999.90;999.90;;;15.00;99.90;;;;;;4974580;28;20489;-69
2023/07/06 00:06:52;;;;;;;1999.90;999.90;;;15.00;99.90;;;;;;4958816;28;20408;-69
2023/07/06 00:09:19;;;;;;;1999.90;999.90;;;15.00;99.90;;;;;;4948560;29;20019;-69
2023/07/06 00:11:47;;;;;;;1999.90;999.90;;;14.90;99.90;;;;;;4957075;29;20051;-69
2023/07/06 00:14:14;;;;;;;1999.90;999.90;;;14.90;99.90;;;;;;4956973;29;20074;-69
2023/07/06 00:16:41;;;;;;;1999.90;999.90;;;14.90;99.90;;;;;;4939520;29;20019;-69
2023/07/06 00:19:08;;;;;;;1999.90;999.90;;;14.80;99.90;;;;;;4939509;29;20038;-70
2023/07/06 00:21:34;;;;;;;1999.90;999.90;;;14.80;99.90;;;;;;4957350;29;20086;-69
2023/07/06 00:24:00;;;;;;;1999.90;999.90;;;14.80;99.90;;;;;;4956855;29;20030;-69
2023/07/06 00:26:26;;;;;;;1999.90;999.90;;;14.80;99.90;;;;;;4957073;29;20106;-69
2023/07/06 00:28:53;;;;;;;1999.90;999.90;;;14.80;99.90;;;;;;4956030;29;20038;-69
2023/07/06 00:31:21;;;;;;;1999.90;999.90;;;14.80;99.90;;;;;;4939350;29;20029;-69
2023/07/06 00:33:52;;;;;;;1999.90;999.90;;;14.80;99.90;;;;;;4956544;29;20023;-69
2023/07/06 00:36:17;;;;;;;1999.90;999.90;;;14.70;99.90;;;;;;4938985;29;20034;-69
2023/07/06 00:38:44;;;;;;;1999.90;999.90;;;14.70;99.90;;;;;;4955830;28;20102;-69
2023/07/06 00:41:12;;;;;;;1999.90;999.90;;;14.70;99.90;;;;;;4956475;29;20369;-69
2023/07/06 00:43:54;;;;;;;1999.90;999.90;;;14.70;99.90;;;;;;4939028;29;20458;-69
2023/07/06 00:46:23;;;;;;;1999.90;999.90;;;14.80;99.90;;;;;;4956400;29;20105;-69
2023/07/06 00:48:50;;;;;;;1999.90;999.90;;;14.70;99.90;;;;;;4938970;29;20038;-69
2023/07/06 00:51:28;;;;;;;1999.90;999.90;;;14.70;99.90;;;;;;4956243;28;20031;-69
2023/07/06 00:53:58;;;;;;;1999.90;999.90;;;14.70;99.90;;;;;;4956360;29;20547;-69
2023/07/06 00:56:27;;;;;;;1999.90;999.90;;;14.70;99.90;;;;;;4956113;29;20083;-69
2023/07/06 00:59:02;;;;;;;1999.90;999.90;;;14.70;99.90;;;;;;4956269;29;20489;-69
2023/07/06 01:01:30;;;;;;;1999.90;999.90;;;14.60;99.90;;;;;;4956034;29;20375;-69
2023/07/06 01:03:56;;;;;;;1999.90;999.90;;;14.60;99.90;;;;;;4949393;29;20027;-69
2023/07/06 01:06:31;;;;;;;1999.90;999.90;;;14.70;99.90;;;;;;4955904;28;20023;-69
2023/07/06 01:08:57;;;;;;;1999.90;999.90;;;14.60;99.90;;;;;;4955657;28;20035;-69
2023/07/06 01:11:24;;;;;;;1999.90;999.90;;;14.60;99.90;;;;;;4938742;29;20024;-69
2023/07/06 01:13:52;;;;;;;1999.90;999.90;;;14.60;99.90;;;;;;4938475;29;20497;-68
2023/07/06 01:16:42;;;;;;;1999.90;999.90;;;14.50;99.90;;;;;;4956110;29;20038;-69
2023/07/06 01:19:26;;;;;;;1999.90;999.90;;;14.50;99.90;;;;;;4955045;29;20019;-69
2023/07/06 01:22:13;;;;;;;1999.90;999.90;;;14.50;99.90;;;;;;4955860;29;20490;-69
2023/07/06 01:25:03;;;;;;;1999.90;999.90;;;14.50;99.90;;;;;;4955423;29;20102;-69
2023/07/06 01:27:41;;;;;;;1999.90;999.90;;;14.40;99.90;;;;;;4955691;29;20080;-69
2023/07/06 01:30:41;;;;;;;1999.90;999.90;;;14.40;99.90;;;;;;4955023;29;20031;-69
2023/07/06 01:33:36;;;;;;;1999.90;999.90;;;14.30;99.90;;;;;;4955873;29;20052;-69
2023/07/06 01:36:28;;;;;;;1999.90;999.90;;;14.30;99.90;;;;;;4956149;29;20052;-69
2023/07/06 01:39:11;;;;;;;1999.90;999.90;;;14.30;99.90;;;;;;4938331;29;20039;-69
2023/07/06 01:41:39;;;;;;;1999.90;999.90;;;14.20;99.90;;;;;;4938259;29;20062;-69
2023/07/06 01:44:05;;;;;;;1999.90;999.90;;;14.20;99.90;;;;;;4955422;29;20030;-69
2023/07/06 01:46:30;;;;;;;1999.90;999.90;;;14.20;99.90;;;;;;4937207;29;20059;-69
2023/07/06 01:48:57;;;;;;;1999.90;999.90;;;14.20;99.90;;;;;;4955015;29;20022;-69
2023/07/06 01:51:34;;;;;;;1999.90;999.90;;;14.20;99.90;;;;;;4955540;28;20019;-69
2023/07/06 01:54:11;;;;;;;1999.90;999.90;;;14.10;99.90;;;;;;4938394;29;20030;-69
2023/07/06 01:56:46;;;;;;;1999.90;999.90;;;14.10;99.90;;;;;;4969113;28;20429;-69
2023/07/06 01:59:19;;;;;;;1999.90;999.90;;;14.10;99.90;;;;;;4974356;28;20026;-69
2023/07/06 02:01:50;;;;;;;1999.90;999.90;;;14.10;99.90;;;;;;4957282;28;20536;-69
2023/07/06 02:04:20;;;;;;;1999.90;999.90;;;14.10;99.90;;;;;;4957603;28;20027;-69
2023/07/06 02:06:52;;;;;;;1999.90;999.90;;;14.10;99.90;;;;;;4955226;28;20041;-69
2023/07/06 02:09:18;;;;;;;1999.90;999.90;;;14.10;99.90;;;;;;4946830;29;20444;-69
2023/07/06 02:11:44;;;;;;;1999.90;999.90;;;14.10;99.90;;;;;;4954933;29;20617;-69
2023/07/06 02:14:09;;;;;;;1999.90;999.90;;;14.10;99.90;;;;;;4954988;29;20023;-69
2023/07/06 02:16:35;;;;;;;1999.90;999.90;;;14.10;99.90;;;;;;4937937;29;20401;-69
2023/07/06 02:19:03;;;;;;;1999.90;999.90;;;14.00;99.90;;;;;;4955723;29;20027;-69
2023/07/06 02:21:31;;;;;;;1999.90;999.90;;;14.00;99.90;;;;;;4937851;29;20124;-69
2023/07/06 02:23:57;;;;;;;1999.90;999.90;;;14.00;99.90;;;;;;4954763;29;20037;-69
2023/07/06 02:26:22;;;;;;;1999.90;999.90;;;14.00;99.90;;;;;;4955259;29;20491;-69
2023/07/06 02:28:48;;;;;;;1999.90;999.90;;;14.00;99.90;;;;;;4954772;29;20039;-69
2023/07/06 02:31:14;;;;;;;1999.90;999.90;;;14.00;99.90;;;;;;4937280;29;20471;-69
2023/07/06 02:33:39;;;;;;;1999.90;999.90;;;14.00;99.90;;;;;;4937983;29;20027;-69
2023/07/06 02:36:06;;;;;;;1999.90;999.90;;;14.00;99.90;;;;;;4954883;29;20477;-69
2023/07/06 02:38:34;;;;;;;1999.90;999.90;;;14.00;99.90;;;;;;4937395;29;20031;-69
2023/07/06 02:41:04;;;;;;;1999.90;999.90;;;13.90;99.90;;;;;;4954987;29;20106;-69
2023/07/06 02:43:32;;;;;;;1999.90;999.90;;;13.90;99.90;;;;;;4937490;29;20031;-69
2023/07/06 02:45:58;;;;;;;1999.90;999.90;;;13.90;99.90;;;;;;4954939;28;20035;-69
2023/07/06 02:48:24;;;;;;;1999.90;999.90;;;13.90;99.90;;;;;;4954867;29;20486;-69
2023/07/06 02:50:51;;;;;;;1999.90;999.90;;;13.90;99.90;;;;;;4937558;29;20075;-68
2023/07/06 02:53:18;;;;;;;1999.90;999.90;;;13.90;99.90;;;;;;4937573;29;20035;-68
2023/07/06 02:55:51;;;;;;;1999.90;999.90;;;13.90;99.90;;;;;;4954767;29;20393;-69
2023/07/06 02:58:18;;;;;;;1999.90;999.90;;;13.80;99.90;;;;;;4937519;29;20058;-69
2023/07/06 03:00:46;;;;;;;1999.90;999.90;;;13.80;99.90;;;;;;4937248;29;20081;-69
2023/07/06 03:03:12;;;;;;;1999.90;999.90;;;13.80;99.90;;;;;;4957276;28;20030;-69
2023/07/06 03:05:38;;;;;;;1999.90;999.90;;;13.80;99.90;;;;;;4958648;28;20031;-69
2023/07/06 03:08:05;;;;;;;1999.90;999.90;;;13.70;99.90;;;;;;4958299;28;20050;-69
2023/07/06 03:10:32;;;;;;;1999.90;999.90;;;13.80;99.90;;;;;;4958041;29;20038;-69
2023/07/06 03:12:59;;;;;;;1999.90;999.90;;;13.70;99.90;;;;;;4958274;29;20023;-69
2023/07/06 03:15:25;;;;;;;1999.90;999.90;;;13.70;99.90;;;;;;4958013;29;20027;-69
2023/07/06 03:17:51;;;;;;;1999.90;999.90;;;13.60;99.90;;;;;;4958346;29;20035;-69
2023/07/06 03:20:22;;;;;;;1999.90;999.90;;;13.70;99.90;;;;;;4957739;29;20494;-69
2023/07/06 03:22:51;;;;;;;1999.90;999.90;;;13.70;99.90;;;;;;4957979;29;20047;-68
2023/07/06 03:25:19;;;;;;;1999.90;999.90;;;13.70;99.90;;;;;;4957530;29;20023;-69
2023/07/06 03:27:48;;;;;;;1999.90;999.90;;;13.60;99.90;;;;;;4940463;29;20490;-69
2023/07/06 03:30:16;;;;;;;1999.90;999.90;;;13.60;99.90;;;;;;4957401;29;20058;-69
2023/07/06 03:32:42;;;;;;;1999.90;999.90;;;13.60;99.90;;;;;;4957658;29;20023;-69
2023/07/06 03:35:10;;;;;;;1999.90;999.90;;;13.70;99.90;;;;;;4957810;28;20034;-69
2023/07/06 03:37:37;;;;;;;1999.90;999.90;;;13.60;99.90;;;;;;4957785;29;20061;-69
2023/07/06 03:40:05;;;;;;;1999.90;999.90;;;13.60;99.90;;;;;;4972389;28;20030;-69
2023/07/06 03:42:31;;;;;;;1999.90;999.90;;;13.60;99.90;;;;;;4972534;28;20023;-69
2023/07/06 03:44:57;;;;;;;1999.90;999.90;;;13.60;99.90;;;;;;4957472;29;20560;-69
2023/07/06 03:47:26;;;;;;;1999.90;999.90;;;13.60;99.90;;;;;;4956973;29;20131;-69
2023/07/06 03:49:53;;;;;;;1999.90;999.90;;;13.60;99.90;;;;;;4957466;29;20397;-69
2023/07/06 03:52:19;;;;;;;1999.90;999.90;;;13.60;99.90;;;;;;4957472;29;20537;-69
2023/07/06 03:54:47;;;;;;;1999.90;999.90;;;13.60;99.90;;;;;;4957475;29;20111;-69
2023/07/06 03:57:16;;;;;;;1999.90;999.90;;;13.60;99.90;;;;;;4957372;29;20508;-69
2023/07/06 03:59:41;;;;;;;1999.90;999.90;;;13.60;99.90;;;;;;4939884;29;20031;-69
2023/07/06 04:02:07;;;;;;;1999.90;999.90;;;13.50;99.90;;;;;;4957244;29;20085;-69
2023/07/06 04:04:34;;;;;;;1999.90;999.90;;;13.40;99.90;;;;;;4975874;28;20037;-69
2023/07/06 04:07:00;;;;;;;1999.90;999.90;;;13.40;99.90;;;;;;4976286;28;20027;-68
2023/07/06 04:09:26;;;;;;;1999.90;999.90;;;13.40;99.90;;;;;;4964925;28;20035;-69
2023/07/06 04:11:52;;;;;;;1999.90;999.90;;;13.40;99.90;;;;;;4956604;29;20030;-69
2023/07/06 04:14:29;;;;;;;1999.90;999.90;;;13.40;99.90;;;;;;4955942;28;20035;-69
2023/07/06 04:16:56;;;;;;;1999.90;999.90;;;13.40;99.90;;;;;;4956995;29;20020;-69
2023/07/06 04:19:22;;;;;;;1999.90;999.90;;;13.40;99.90;;;;;;4956215;29;20023;-69
2023/07/06 04:21:48;;;;;;;1999.90;999.90;;;13.40;99.90;;;;;;4956806;29;20110;-69
2023/07/06 04:24:16;;;;;;;1999.90;999.90;;;13.40;99.90;;;;;;4956964;29;20105;-69
2023/07/06 04:26:44;;;;;;;1999.90;999.90;;;13.40;99.90;;;;;;4956498;29;20030;-69
2023/07/06 04:29:10;;;;;;;1999.90;999.90;;;13.40;99.90;;;;;;4956443;29;20362;-68
2023/07/06 04:31:42;;;;;;;1999.90;999.90;;;13.40;99.90;;;;;;4956058;29;20015;-69
2023/07/06 04:34:08;;;;;;;1999.90;999.90;;;13.50;99.90;;;;;;4956827;29;20027;-69
2023/07/06 04:36:33;;;;;;;1999.90;999.90;;;13.50;99.90;;;;;;4939466;29;20274;-69
2023/07/06 04:38:59;;;;;;;1999.90;999.90;;;13.50;99.90;;;;;;4956123;29;20413;-68
2023/07/06 04:41:27;;;;;;;1999.90;999.90;;;13.50;99.90;;;;;;4956290;29;20034;-68
2023/07/06 04:43:53;;;;;;;1999.90;999.90;;;13.60;99.90;;;;;;4956388;29;20027;-69
2023/07/06 04:46:20;;;;;;;1999.90;999.90;;;13.60;99.90;;;;;;4956376;28;20070;-69
2023/07/06 04:48:47;;;;;;;1999.90;999.90;;;13.60;99.90;;;;;;4956417;29;20478;-69
2023/07/06 04:51:12;;;;;;;1999.90;999.90;;;13.60;99.90;;;;;;4956285;29;20046;-69
2023/07/06 04:53:38;;;;;;;1999.90;999.90;;;13.60;99.90;;;;;;4956021;29;20406;-69
2023/07/06 04:56:04;;;;;;;1999.90;999.90;;;13.60;99.90;;;;;;4956225;29;20058;-69
2023/07/06 04:58:30;;;;;;;1999.90;999.90;;;13.70;99.90;;;;;;4956411;29;20422;-69
2023/07/06 05:01:03;;;;;;;1999.90;999.90;;;13.70;99.90;;;;;;4956406;29;20031;-69
2023/07/06 05:03:30;;;;;;;1999.90;999.90;;;13.70;99.90;;;;;;4946010;29;20031;-69
2023/07/06 05:06:02;;;;;;;1999.90;999.90;;;13.80;99.90;;;;;;4955967;28;20378;-69
2023/07/06 05:08:27;;;;;;;1999.90;999.90;;;13.80;99.90;;;;;;4956018;28;20035;-68
2023/07/06 05:10:53;;;;;;;1999.90;999.90;;;13.80;99.90;;;;;;4956048;29;20041;-69
2023/07/06 05:13:22;;;;;;;1999.90;999.90;;;13.90;99.90;;;;;;4956126;29;20098;-69
2023/07/06 05:15:48;;;;;;;1999.90;999.90;;;13.90;99.90;;;;;;4951537;28;20371;-69
2023/07/06 05:18:15;;;;;;;1999.90;999.90;;;13.90;99.90;;;;;;4955363;29;20508;-69
2023/07/06 05:20:40;;;;;;;1999.90;999.90;;;14.00;99.90;;;;;;4955240;29;20027;-69
2023/07/06 05:23:08;;;;;;;1999.90;999.90;;;14.10;99.90;;;;;;4955423;29;20039;-69
2023/07/06 05:25:34;;;;;;;1999.90;999.90;;;14.10;99.90;;;;;;4957374;28;20095;-69
2023/07/06 05:28:00;;;;;;;1999.90;999.90;;;14.10;99.90;;;;;;4964867;28;20031;-69
2023/07/06 05:30:27;;;;;;;1999.90;999.90;;;14.20;99.90;;;;;;4974169;28;20069;-69
2023/07/06 05:32:53;;;;;;;1999.90;999.90;;;14.30;99.90;;;;;;4972999;28;20038;-69
2023/07/06 05:35:19;;;;;;;1999.90;999.90;;;14.40;99.90;;;;;;4950353;29;20375;-69
2023/07/06 05:37:45;;;;;;;1999.90;999.90;;;14.40;99.90;;;;;;4961807;28;20600;-69
2023/07/06 05:40:11;;;;;;;1999.90;999.90;;;14.50;99.90;;;;;;4957559;28;20098;-69
2023/07/06 05:42:37;;;;;;;1999.90;999.90;;;14.60;99.90;;;;;;4933528;29;20067;-69
2023/07/06 05:45:03;;;;;;;1999.90;999.90;;;14.60;99.90;;;;;;4936211;29;20062;-69
2023/07/06 05:47:28;;;;;;;1999.90;999.90;;;14.70;99.90;;;;;;4954295;29;20047;-69
2023/07/06 05:49:54;;;;;;;1999.90;999.90;;;14.70;99.90;;;;;;4950423;28;20031;-69
2023/07/06 05:52:20;;;;;;;1999.90;999.90;;;14.80;99.90;;;;;;4965072;28;20035;-69
2023/07/06 05:54:46;;;;;;;1999.90;999.90;;;14.90;99.90;;;;;;4953993;29;20489;-69
2023/07/06 05:57:16;;;;;;;1999.90;999.90;;;15.00;99.90;;;;;;4952594;28;20114;-69
2023/07/06 05:59:42;;;;;;;1999.90;999.90;;;15.00;99.90;;;;;;4956805;28;20430;-71
2023/07/06 06:02:12;;;;;;;1999.90;999.90;;;15.10;99.90;;;;;;4936022;28;20062;-71
2023/07/06 06:04:39;;;;;;;1999.90;999.90;;;15.30;99.90;;;;;;4951497;28;20034;-71
2023/07/06 06:07:06;;;;;;;1999.90;999.90;;;15.30;99.90;;;;;;4949860;28;20027;-71
2023/07/06 06:09:33;;;;;;;1999.90;999.90;;;15.40;99.90;;;;;;4949289;28;20114;-71
2023/07/06 06:11:59;;;;;;;1999.90;999.90;;;15.50;99.90;;;;;;4950067;28;20037;-71
2023/07/06 06:14:24;;;;;;;1999.90;999.90;;;15.60;99.90;;;;;;4930676;28;20105;-71
2023/07/06 06:16:51;;;;;;;1999.90;999.90;;;15.60;99.90;;;;;;4926337;28;20039;-71
2023/07/06 06:19:16;;;;;;;1999.90;999.90;;;15.70;99.90;;;;;;4910334;29;20039;-71
2023/07/06 06:21:42;;;;;;;1999.90;999.90;;;15.80;99.90;;;;;;4936498;28;20039;-71
2023/07/06 06:24:08;;;;;;;1999.90;999.90;;;15.90;99.90;;;;;;4940949;28;20035;-70
2023/07/06 06:26:35;;;;;;;1999.90;999.90;;;16.00;99.90;;;;;;4943852;28;20808;-71
2023/07/06 06:29:01;;;;;;;1999.90;999.90;;;16.10;99.90;;;;;;4927240;28;20126;-71
2023/07/06 06:31:28;;;;;;;1999.90;999.90;;;16.10;99.90;;;;;;4926808;29;20468;-71
2023/07/06 06:33:54;;;;;;;1999.90;999.90;;;16.20;99.90;;;;;;4916786;28;20172;-68
2023/07/06 06:36:20;;;;;;;1999.90;999.90;;;16.30;99.90;;;;;;4922591;28;20443;-69
2023/07/06 06:38:46;;;;;;;1999.90;999.90;;;16.40;99.90;;;;;;4928128;28;20038;-69
2023/07/06 06:41:12;;;;;;;1999.90;999.90;;;16.60;99.90;;;;;;4915044;28;20564;-71
2023/07/06 06:43:38;;;;;;;1999.90;999.90;;;16.60;99.90;;;;;;4940078;28;20034;-72
2023/07/06 06:46:08;;;;;;;1999.90;999.90;;;16.70;99.90;;;;;;4936868;28;20039;-72
2023/07/06 06:48:34;;;;;;;1999.90;999.90;;;16.90;99.90;;;;;;4912483;29;20046;-72
2023/07/06 06:51:01;;;;;;;1999.90;999.90;;;17.00;99.90;;;;;;4924558;28;20018;-71
2023/07/06 06:53:27;;;;;;;1999.90;999.90;;;17.10;99.90;;;;;;4934276;28;20046;-72
2023/07/06 06:55:53;;;;;;;1999.90;999.90;;;17.20;99.90;;;;;;4930453;29;20058;-70
2023/07/06 06:58:20;;;;;;;1999.90;999.90;;;17.30;99.90;;;;;;4930594;29;20063;-70
2023/07/06 07:00:47;;;;;;;1999.90;999.90;;;17.40;99.90;;;;;;4912982;29;20035;-70
2023/07/06 07:03:14;;;;;;;1999.90;999.90;;;17.50;99.90;;;;;;4920904;29;20039;-69
2023/07/06 07:05:40;;;;;;;1999.90;999.90;;;17.60;99.90;;;;;;4934802;28;20105;-69
2023/07/06 07:08:07;;;;;;;1999.90;999.90;;;17.80;99.90;;;;;;4922683;29;20351;-70
2023/07/06 07:10:32;;;;;;;1999.90;999.90;;;17.90;99.90;;;;;;4913397;29;20342;-70
2023/07/06 07:12:58;;;;;;;1999.90;999.90;;;18.00;99.90;;;;;;4930061;28;20429;-71
2023/07/06 07:15:25;;;;;;;1999.90;999.90;;;18.20;99.90;;;;;;4932679;28;20042;-69
2023/07/06 07:17:51;;;;;;;1999.90;999.90;;;18.20;99.90;;;;;;4907597;29;20031;-70
2023/07/06 07:20:18;;;;;;;1999.90;999.90;;;18.30;99.90;;;;;;4907339;29;20607;-70
2023/07/06 07:22:44;;;;;;;1999.90;999.90;;;18.40;99.90;;;;;;4928564;28;20031;-71
2023/07/06 07:25:11;;;;;;;1999.90;999.90;;;18.60;99.90;;;;;;4936041;28;20113;-70
2023/07/06 07:27:36;;;;;;;1999.90;999.90;;;18.70;99.90;;;;;;4938049;28;20434;-70
2023/07/06 07:30:04;;;;;;;1999.90;999.90;;;18.90;99.90;;;;;;4924430;29;20062;-71
2023/07/06 07:32:31;;;;;;;1999.90;999.90;;;18.90;99.90;;;;;;4920164;29;20055;-70
2023/07/06 07:34:58;;;;;;;1999.90;999.90;;;19.10;99.90;;;;;;4925319;28;20204;-71
2023/07/06 07:37:25;;;;;;;1999.90;999.90;;;19.50;99.90;;;;;;4938916;28;20431;-70
2023/07/06 07:39:50;;;;;;;1999.90;999.90;;;21.70;99.90;;;;;;4928316;29;20358;-71
2023/07/06 07:42:16;;;;;;;1999.90;999.90;;;23.80;99.90;;;;;;4930053;28;20042;-71
2023/07/06 07:44:46;;;;;;;1999.90;999.90;;;25.60;99.90;;;;;;4928279;29;20138;-72
2023/07/06 07:47:15;;;;;;;1999.90;999.90;;;26.50;99.90;;;;;;4937095;28;20079;-71
2023/07/06 07:49:41;;;;;;;1999.90;999.90;;;26.90;99.90;;;;;;4928778;28;20620;-73
2023/07/06 07:52:09;;;;;;;1999.90;999.90;;;27.10;99.90;;;;;;4937074;28;20035;-74
2023/07/06 07:54:35;;;;;;;1999.90;999.90;;;27.30;99.90;;;;;;4911073;29;20540;-73
2023/07/06 07:57:00;;;;;;;1999.90;999.90;;;27.50;99.90;;;;;;4929250;29;20082;-74
2023/07/06 07:59:26;;;;;;;1999.90;999.90;;;27.90;99.90;;;;;;4927256;28;20483;-73
2023/07/06 08:01:52;;;;;;;1999.90;999.90;;;28.80;99.90;;;;;;4910990;29;20032;-74
2023/07/06 08:04:20;;;;;;;1999.90;999.90;;;29.20;99.90;;;;;;4934636;28;20642;-74
2023/07/06 08:06:46;;;;;;;1999.90;999.90;;;29.40;99.90;;;;;;4942053;28;20157;-73
2023/07/06 08:09:13;;;;;;;1999.90;999.90;;;29.40;98.90;;;;;;4920672;29;20138;-74
2023/07/06 08:11:45;;;;;;;1999.90;999.90;;;29.70;98.70;;;;;;4922690;28;20138;-74
2023/07/06 08:14:11;;;;;;;1999.90;999.90;;;29.80;98.00;;;;;;4926334;29;20036;-74
2023/07/06 08:16:40;;;;;;;1999.90;999.90;;;29.70;97.40;;;;;;4941148;28;20117;-74
2023/07/06 08:19:07;;;;;;;1999.90;999.90;;;30.10;97.80;;;;;;4927500;29;20869;-73
2023/07/06 08:21:33;;;;;;;1999.90;999.90;;;30.30;98.30;;;;;;4909564;29;20089;-73
2023/07/06 08:23:59;;;;;;;1999.90;999.90;;;30.50;97.50;;;;;;4924649;28;20043;-73
2023/07/06 08:26:25;;;;;;;1999.90;999.90;;;31.30;97.70;;;;;;4914919;28;20030;-73
2023/07/06 08:28:51;;;;;;;1999.90;999.90;;;31.70;95.40;;;;;;4935411;28;20043;-73
2023/07/06 08:31:19;;;;;;;1999.90;999.90;;;31.40;95.40;;;;;;4927939;28;20410;-74
2023/07/06 08:33:47;;;;;;;1999.90;999.90;;;31.10;95.90;;;;;;4927793;28;20153;-73
2023/07/06 08:36:14;;;;;;;1999.90;999.90;;;31.90;95.00;;;;;;4935899;28;20019;-73
2023/07/06 08:38:43;;;;;;;1999.90;999.90;;;31.80;94.70;;;;;;4931690;28;20035;-73
2023/07/06 08:41:26;;;;;;;1999.90;999.90;;;32.60;92.40;;;;;;4929407;29;20358;-74
2023/07/06 08:43:53;;;;;;;1999.90;999.90;;;33.00;92.60;;;;;;4929908;28;20866;-74
2023/07/06 08:46:20;;;;;;;1999.90;999.90;;;33.30;93.10;;;;;;4911404;29;20374;-73
2023/07/06 08:48:46;;;;;;;1999.90;999.90;;;32.60;91.70;;;;;;4894874;29;20456;-74
2023/07/06 08:51:30;;;;;;;1999.90;999.90;;;32.20;91.80;;;;;;4890302;29;20363;-73
2023/07/06 08:54:02;;;;;;;1999.90;999.90;;;32.10;92.70;;;;;;4889807;29;20044;-74
2023/07/06 08:56:30;;;;;;;;;;;31.80;91.90;;;;;;4888552;29;20090;-74
2023/07/06 08:58:59;;;;;;;1999.90;999.90;;;32.90;92.60;;;;;;4889513;29;19919;-74
2023/07/06 09:01:24;;;;;;;1999.90;999.90;;;33.20;91.20;;;;;;4889501;29;20042;-73
2023/07/06 09:03:59;;;;;;;1999.90;999.90;;;33.50;91.70;;;;;;4891868;29;20351;-73
2023/07/06 09:06:28;;;;;;;1999.90;999.90;;;33.70;91.60;;;;;;4899746;29;20552;-74
2023/07/06 09:09:03;;;;;;;1999.90;999.90;;;33.50;90.90;;;;;;4891751;29;20036;-74
2023/07/06 09:11:33;;;;;;;1999.90;999.90;;;33.40;90.50;;;;;;4893772;29;20427;-73
2023/07/06 09:14:05;;;;;;;1999.90;999.90;;;33.00;90.80;;;;;;4891089;29;20024;-73
2023/07/06 09:16:35;;;;;;;1999.90;999.90;;;33.30;90.20;;;;;;4886152;29;20035;-73
2023/07/06 09:19:08;;;;;;;1999.90;999.90;;;32.90;89.50;;;;;;4888831;29;20032;-74
2023/07/06 09:21:34;;;;;;;1999.90;999.90;;;32.30;92.00;;;;;;4887564;29;20447;-74
2023/07/06 09:24:00;;;;;;;1999.90;999.90;;;32.60;92.10;;;;;;4888913;29;20040;-73
2023/07/06 09:26:35;;;;;;;1999.90;999.90;;;32.80;90.40;;;;;;4896572;29;20031;-73
2023/07/06 09:29:22;;;;;;;1999.90;999.90;;;33.30;91.00;;;;;;4896188;29;20039;-73
2023/07/06 09:31:49;;;;;;;1999.90;999.90;;;33.30;90.00;;;;;;4888417;29;20020;-74
2023/07/06 09:34:27;;;;;;;1999.90;999.90;;;33.90;90.40;;;;;;4891167;29;20143;-74
2023/07/06 09:36:52;;;;;;;1999.90;999.90;;;34.20;87.20;;;;;;4892968;29;20051;-73
2023/07/06 09:39:18;;;;;;;1999.90;999.90;;;33.90;88.80;;;;;;4886981;29;20046;-73
2023/07/06 09:41:45;;;;;;;1999.90;999.90;;;34.20;88.30;;;;;;4889099;29;20371;-73
2023/07/06 09:44:21;;;;;;;1999.90;999.90;;;34.20;86.40;;;;;;4890503;29;20082;-74
2023/07/06 09:46:46;;;;;;;1999.90;999.90;;;33.50;86.90;;;;;;4895572;29;20078;-74
2023/07/06 09:49:17;;;;;;;1999.90;999.90;;;33.00;86.30;;;;;;4906927;29;20040;-73
2023/07/06 09:51:50;;;;;;;1999.90;999.90;;;33.00;87.20;;;;;;4907538;29;20027;-73
2023/07/06 09:54:54;;;;;;;1999.90;999.90;;;32.80;88.40;;;;;;4907806;29;20550;-73
2023/07/06 09:57:24;;;;;;;1999.90;999.90;;;33.50;88.80;;;;;;4887531;29;20028;-73
2023/07/06 09:59:52;;;;;;;1999.90;999.90;;;34.40;90.80;;;;;;4905250;29;20047;-73
2023/07/06 10:02:26;;;;;;;1999.90;999.90;;;33.90;87.60;;;;;;4908195;29;20043;-73
2023/07/06 10:05:04;;;;;;;1999.90;999.90;;;33.80;88.00;;;;;;4914280;28;20327;-73
2023/07/06 10:07:42;;;;;;;1999.90;999.90;;;33.70;90.30;;;;;;4900951;29;20028;-73
2023/07/06 10:10:43;;;;;;;1999.90;999.90;;;34.10;87.10;;;;;;4907018;29;20088;-73
2023/07/06 10:13:17;;;;;;;1999.90;999.90;;;34.20;86.90;;;;;;4903253;29;20099;-74
2023/07/06 10:15:51;;;;;;;1999.90;999.90;;;33.70;86.70;;;;;;4907934;29;20050;-73
2023/07/06 10:18:50;;;;;;;1999.90;999.90;;;32.70;89.10;;;;;;4911090;29;20031;-73
2023/07/06 10:21:43;;;;;;;1999.90;999.90;;;32.80;85.90;;;;;;4911420;29;20042;-73
2023/07/06 10:24:31;;;;;;;1999.90;999.90;;;32.60;88.60;;;;;;4908456;29;20098;-73
2023/07/06 10:27:02;;;;;;;1999.90;999.90;;;33.30;87.20;;;;;;4909276;29;20074;-74
2023/07/06 10:29:43;;;;;;;1999.90;999.90;;;32.70;87.70;;;;;;4905799;29;20035;-73
2023/07/06 10:32:13;;;;;;;1999.90;999.90;;;32.30;87.40;;;;;;4911003;29;20295;-72
2023/07/06 10:34:51;;;;;;;1999.90;999.90;;;31.30;90.10;;;;;;4910681;29;20641;-73
2023/07/06 10:37:18;;;;;;;1999.90;999.90;;;30.40;91.30;;;;;;4902304;29;20043;-74
2023/07/06 10:39:43;;;;;;;1999.90;999.90;;;31.30;91.90;;;;;;4905739;29;20035;-73
2023/07/06 10:42:42;;;;;;;1999.90;999.90;;;32.10;91.70;;;;;;4904211;29;20550;-72
2023/07/06 10:45:23;;;;;;;1999.90;999.90;;;32.80;91.20;;;;;;4907779;29;20055;-73
2023/07/06 10:47:50;;;;;;;1999.90;999.90;;;32.90;90.30;;;;;;4927263;29;20394;-73
2023/07/06 10:50:30;;;;;;;1999.90;999.90;;;33.00;90.00;;;;;;4912650;29;20039;-75
2023/07/06 10:53:01;;;;;;;1999.90;999.90;;;32.60;90.00;;;;;;4927754;29;20518;-74
2023/07/06 10:55:35;;;;;;;1999.90;999.90;;;33.10;90.40;;;;;;4929399;29;20023;-73
2023/07/06 10:58:48;;;;;;;1999.90;999.90;;;32.40;89.80;;;;;;4920312;28;20467;-73
2023/07/06 11:01:19;;;;;;;1999.90;999.90;;;31.80;90.40;;;;;;4911825;29;20122;-72
2023/07/06 11:03:46;;;;;;;1999.90;999.90;;;31.40;89.60;;;;;;4933534;28;20339;-75
2023/07/06 11:06:16;;;;;;;1999.90;999.90;;;31.20;90.30;;;;;;4930273;28;20059;-75
2023/07/06 11:09:08;;;;;;;1999.90;999.90;;;31.60;90.30;;;;;;4910511;29;20446;-72
2023/07/06 11:11:39;;;;;;;1999.90;999.90;;;31.70;90.20;;;;;;4928135;29;20387;-72
2023/07/06 11:14:31;;;;;;;1999.90;999.90;;;31.30;89.60;;;;;;4926340;28;20485;-73
2023/07/06 11:17:10;;;;;;;1999.90;999.90;;;30.50;90.40;;;;;;4924659;29;20075;-74
2023/07/06 11:19:43;;;;;;;1999.90;999.90;;;30.60;91.30;;;;;;4908685;29;20037;-74
2023/07/06 11:22:16;;;;;;;1999.90;999.90;;;31.00;90.50;;;;;;4925892;28;20023;-73
2023/07/06 11:24:48;;;;;;;1999.90;999.90;;;31.00;90.70;;;;;;4923421;29;20031;-72
2023/07/06 11:27:34;;;;;;;1999.90;999.90;;;31.50;90.90;;;;;;4926427;29;20027;-72
2023/07/06 11:30:22;;;;;;;1999.90;999.90;;;31.60;90.60;;;;;;4928612;28;20043;-74
2023/07/06 11:33:06;;;;;;;1999.90;999.90;;;31.20;91.00;;;;;;4927320;29;20078;-74
2023/07/06 11:35:55;;;;;;;1999.90;999.90;;;31.70;91.20;;;;;;4925660;28;20411;-72
2023/07/06 11:39:09;;;;;;;1999.90;999.90;;;31.40;90.60;;;;;;4926068;28;20513;-72
2023/07/06 11:41:53;;;;;;;1999.90;999.90;;;31.10;90.30;;;;;;4874735;28;20118;-72
2023/07/06 11:44:50;;;;;;;1999.90;999.90;;;30.70;91.60;;;;;;4916377;29;20023;-72
2023/07/06 11:47:53;;;;;;;1999.90;999.90;;;30.60;91.30;;;;;;4927640;29;20154;-72
2023/07/06 11:50:21;;;;;;;1999.90;999.90;;;31.20;91.70;;;;;;4919113;28;20142;-72
2023/07/06 11:53:08;;;;;;;1999.90;999.90;;;31.00;91.10;;;;;;4929091;28;20350;-72
2023/07/06 11:55:49;;;;;;;1999.90;999.90;;;30.60;92.00;;;;;;4927843;29;20477;-74
2023/07/06 11:58:28;;;;;;;1999.90;999.90;;;31.00;90.90;;;;;;4931821;28;20051;-74
2023/07/06 12:00:56;;;;;;;1999.90;999.90;;;31.40;91.00;;;;;;4926976;28;20404;-72
2023/07/06 12:03:26;;;;;;;1999.90;999.90;;;31.40;91.00;;;;;;4927918;28;20030;-72
2023/07/06 12:05:55;;;;;;;1999.90;999.90;;;31.20;90.50;;;;;;4920915;28;20038;-72
2023/07/06 12:08:35;;;;;;;1999.90;999.90;;;31.00;90.90;;;;;;4927986;29;20517;-74
2023/07/06 12:11:15;;;;;;;1999.90;999.90;;;30.50;91.20;;;;;;4928298;29;20192;-74
2023/07/06 12:13:43;;;;;;;1999.90;999.90;;;31.10;91.20;;;;;;4914999;29;20135;-72
2023/07/06 12:16:09;;;;;;;1999.90;999.90;;;31.10;90.90;;;;;;4910610;29;20042;-74